YCBG weather

Hobart Cambridge Airport
Tasmania, Australia

Public forecast

Using degrees Celsius for public forecast. Weather courtesy of forecast.io.

METAR (pilot weather report)

Closest report is Hobart International Airport, 1.6 nm (3.0 km) ESE. Retrieved 2018/02/21 13:00 UTC (18 minutes ago):

YMHB 211300Z 21005KT CAVOK 14/11 Q1018

TAF (pilot weather forecast)

Closest forecast is Hobart International Airport, 1.6 nm (3.0 km) ESE. Retrieved 2018/02/21 12:36 UTC (42 minutes ago):

TAF YMHB 211104Z 2112/2212 VRB03KT CAVOK FM211700 34006KT 9999 FEW010 FM212100 33005KT CAVOK FM220100 14012KT CAVOK FM220700 09010KT CAVOK